Galvin, WA

3:06 AM PDT on June 02, 2015 (GMT -0700)
GRAND MOUND KF7ZAO | | Change Station
CLOSE
Current Station
Personal Weather Station
Location: Centralia, WA
Elevation: 157 ft
Nearby Weather Stations

Elev 157 ft 46.77 °N, 123.01 °W | Updated 0 second ago

Overcast
Overcast
55.6 °F
Feels Like 55.6 °F
N
0.0
Wind Variable Wind from South
Gusts 0.0 mph

Today
High -- | Low -- °F
--% Chance of Precip.
Yesterday
High -- | Low -- °F
Precip. -- in
5:21 AM 8:59 PM
Full, 100% visible
Pressure 29.98 in
Visibility 2.5 miles
Clouds Mostly Cloudy 1000 ft
Mostly Cloudy 2300 ft
Overcast 2700 ft
Dew Point 50 °F
Humidity 83%
Rainfall 0.00 in
Snow Depth Not available.
UV 0 out of 12
Pollen 7.30 out of 12
Air Quality Not available.
Flu Activity Sporadic
METAR KCLS 020955Z AUTO 20003KT 2 1/2SM -DZ BKN010 BKN023 OVC027 13/13 A2998 RMK AO2

More Conditions Fewer Conditions

Pressure 29.98 in
Visibility 2.5 miles
Clouds Mostly Cloudy 1000 ft
Mostly Cloudy 2300 ft
Overcast 2700 ft
Dew Point 50 °F
Humidity 83%
Rainfall 0.00 in
Snow Depth Not available.
UV 0 out of 12
Pollen 7.30 out of 12
Air Quality Not available.
Flu Activity Sporadic
METAR KCLS 020955Z AUTO 20003KT 2 1/2SM -DZ BKN010 BKN023 OVC027 13/13 A2998 RMK AO2

More Conditions Fewer Conditions

10-Day Weather Forecast

Almanac

Astronomy

Jun. 02, 2015 Rise Set
Actual Time
Civil Twilight
Nautical Twilight
Astronomical Twilight
Moon
Length of Visible Light
Length of Day
Tomorrow will be .
, % of the Moon is Illuminated

Today's Extremes

State Highs State Lows

Community

WunderPhotos

Upload Photos

1,825,901 photos uploaded!

WunderBlogs® & News

Nearby

Air Quality

  Air Quality AQ Index Pollutant
Not available.

Snow Depth

Station Depth Elevation

Earthquake Activity

City Distance Mag. Time & Date
Minimum magnitude displayed is 2.5.

Coastal Water Temperatures

Place Temperature

Stations

Nearby Weather Stations

Station Location Temp. Windchill Dew Point Humidity Wind Precip. Elev Updated Type